Time;durP1;ratioP1;P1;durP2;ratioP2;P2;SDS_P1;SDS_P2;PMS_P1;PMS_P2;Temp;Humidity;BMP_temperature;BMP_pressure;BME280_temperature;BME280_humidity;BME280_pressure;Samples;Min_cycle;Max_cycle;Signal;HPM_P1;HPM_P2
2022/08/10 00:00:20;;;;;;;1.80;1.70;;;22.10;76.70;;;;;;5032029;28;20017;-63
2022/08/10 00:02:54;;;;;;;1.45;1.35;;;22.10;76.70;;;;;;5032066;28;20057;-61
2022/08/10 00:05:21;;;;;;;1.60;1.50;;;22.10;76.70;;;;;;5033128;28;20044;-62
2022/08/10 00:07:48;;;;;;;1.45;1.35;;;22.00;76.50;;;;;;5032028;28;20044;-61
2022/08/10 00:10:15;;;;;;;1.55;1.45;;;22.00;76.50;;;;;;5030116;28;20045;-62
2022/08/10 00:12:42;;;;;;;1.83;1.67;;;22.00;76.60;;;;;;5031495;28;20029;-62
2022/08/10 00:15:10;;;;;;;1.17;1.17;;;22.00;76.40;;;;;;5032887;28;20021;-63
2022/08/10 00:17:36;;;;;;;1.05;1.05;;;22.00;76.40;;;;;;5032762;28;20018;-61
2022/08/10 00:20:03;;;;;;;1.70;1.60;;;22.00;76.40;;;;;;5032229;28;20057;-61
2022/08/10 00:22:29;;;;;;;1.30;1.20;;;22.00;76.30;;;;;;5032569;28;20033;-63
2022/08/10 00:24:58;;;;;;;1.70;1.60;;;22.00;76.20;;;;;;5031936;28;20033;-63
2022/08/10 00:27:24;;;;;;;1.23;1.20;;;22.00;76.30;;;;;;5033970;28;20036;-63
2022/08/10 00:29:50;;;;;;;1.58;1.48;;;22.00;76.30;;;;;;5027989;28;20038;-63
2022/08/10 00:32:16;;;;;;;1.70;1.60;;;21.90;76.30;;;;;;5030339;28;20026;-62
2022/08/10 00:34:42;;;;;;;1.70;1.60;;;21.90;76.30;;;;;;5032122;28;20028;-63
2022/08/10 00:37:07;;;;;;;1.55;1.45;;;21.90;76.10;;;;;;5044723;28;20060;-63
2022/08/10 00:39:33;;;;;;;1.75;1.65;;;21.80;76.00;;;;;;5031099;28;20032;-62
2022/08/10 00:41:59;;;;;;;1.67;1.58;;;21.90;76.10;;;;;;5032234;28;20404;-62
2022/08/10 00:44:25;;;;;;;1.70;1.60;;;21.80;76.00;;;;;;5037046;28;20469;-62
2022/08/10 00:46:50;;;;;;;1.52;1.42;;;21.80;76.00;;;;;;5032722;28;20116;-62
2022/08/10 00:49:16;;;;;;;1.67;1.58;;;21.80;76.00;;;;;;5030084;28;20505;-63
2022/08/10 00:51:42;;;;;;;1.42;1.40;;;21.80;75.90;;;;;;5032513;28;20025;-63
2022/08/10 00:54:08;;;;;;;2.00;1.80;;;21.80;76.00;;;;;;5032324;28;20021;-62
2022/08/10 00:56:35;;;;;;;1.08;1.08;;;21.70;76.10;;;;;;5032385;28;20454;-62
2022/08/10 00:59:01;;;;;;;1.73;1.63;;;21.70;75.90;;;;;;5030953;28;20029;-62
2022/08/10 01:01:26;;;;;;;1.63;1.48;;;21.70;76.00;;;;;;5035110;28;20052;-62
2022/08/10 01:03:52;;;;;;;1.58;1.48;;;21.70;76.10;;;;;;5039755;28;20392;-63
2022/08/10 01:06:55;;;;;;;1.52;1.42;;;21.70;76.30;;;;;;5031759;28;20026;-63
2022/08/10 01:09:45;;;;;;;1.40;1.30;;;21.70;76.10;;;;;;5030983;28;20053;-62
2022/08/10 01:12:21;;;;;;;1.33;1.33;;;21.70;76.10;;;;;;5027031;28;20022;-62
2022/08/10 01:15:17;;;;;;;1.25;1.15;;;21.60;76.30;;;;;;5039082;28;20097;-63
2022/08/10 01:18:03;;;;;;;1.30;1.20;;;21.60;76.40;;;;;;5036453;28;20423;-63
2022/08/10 01:20:36;;;;;;;1.30;1.30;;;21.60;76.40;;;;;;5031619;28;20338;-61
2022/08/10 01:23:14;;;;;;;1.38;1.27;;;21.60;76.40;;;;;;5036312;28;20053;-63
2022/08/10 01:25:57;;;;;;;1.60;1.50;;;21.60;76.60;;;;;;5035750;28;20029;-62
2022/08/10 01:28:54;;;;;;;1.20;1.15;;;21.60;76.40;;;;;;5033351;28;20396;-62
2022/08/10 01:31:25;;;;;;;1.48;1.38;;;21.60;76.30;;;;;;5027458;28;20028;-62
2022/08/10 01:33:57;;;;;;;1.20;1.20;;;21.60;76.50;;;;;;5036077;28;20013;-62
2022/08/10 01:36:28;;;;;;;1.65;1.55;;;21.50;76.40;;;;;;5035410;28;20034;-61
2022/08/10 01:38:57;;;;;;;1.25;1.25;;;21.50;76.40;;;;;;5031487;28;20025;-62
2022/08/10 01:41:23;;;;;;;1.38;1.27;;;21.50;76.50;;;;;;5035436;28;20108;-63
2022/08/10 01:44:07;;;;;;;1.70;1.60;;;21.50;76.70;;;;;;5035869;28;20101;-62
2022/08/10 01:46:35;;;;;;;1.42;1.33;;;21.60;76.70;;;;;;5035523;28;20476;-62
2022/08/10 01:49:05;;;;;;;1.88;1.42;;;21.50;76.70;;;;;;5035334;28;20021;-62
2022/08/10 01:51:36;;;;;;;1.50;1.40;;;21.50;76.80;;;;;;5035053;28;20037;-60
2022/08/10 01:54:06;;;;;;;1.13;1.13;;;21.50;76.70;;;;;;5035680;28;20037;-62
2022/08/10 01:56:36;;;;;;;1.52;1.42;;;21.50;76.70;;;;;;5034283;28;20022;-62
2022/08/10 01:59:09;;;;;;;1.33;1.23;;;21.50;76.70;;;;;;5031490;28;20484;-61
2022/08/10 02:01:48;;;;;;;1.45;1.45;;;21.50;76.50;;;;;;5034695;28;20104;-63
2022/08/10 02:04:16;;;;;;;1.25;1.15;;;21.50;76.60;;;;;;5034792;28;20104;-63
2022/08/10 02:06:48;;;;;;;1.20;1.10;;;21.50;76.80;;;;;;5035595;28;20029;-63
2022/08/10 02:09:27;;;;;;;1.23;1.13;;;21.50;76.70;;;;;;5034072;28;20045;-63
2022/08/10 02:11:57;;;;;;;0.98;0.98;;;21.50;76.80;;;;;;5035473;28;20029;-61
2022/08/10 02:14:31;;;;;;;1.35;1.25;;;21.50;76.60;;;;;;5034461;28;20088;-62
2022/08/10 02:16:58;;;;;;;0.98;0.98;;;21.50;76.90;;;;;;5035230;28;20481;-63
2022/08/10 02:19:26;;;;;;;1.50;1.40;;;21.50;76.80;;;;;;5033954;28;20072;-63
2022/08/10 02:21:53;;;;;;;1.48;1.38;;;21.50;76.80;;;;;;5034994;28;20485;-61
2022/08/10 02:24:21;;;;;;;1.15;1.13;;;21.50;76.70;;;;;;5033479;28;20116;-62
2022/08/10 02:26:48;;;;;;;1.00;1.00;;;21.60;76.90;;;;;;5034148;28;20516;-63
2022/08/10 02:29:16;;;;;;;0.90;0.90;;;21.50;77.10;;;;;;5033616;28;20611;-63
2022/08/10 02:31:43;;;;;;;1.25;1.17;;;21.50;76.80;;;;;;5034790;28;20087;-63
2022/08/10 02:34:12;;;;;;;1.25;1.15;;;21.50;76.80;;;;;;5034831;28;20017;-61
2022/08/10 02:36:42;;;;;;;1.58;1.48;;;21.50;77.10;;;;;;5046570;28;20021;-62
2022/08/10 02:39:10;;;;;;;1.30;1.20;;;21.50;77.10;;;;;;5032165;28;20028;-62
2022/08/10 02:41:39;;;;;;;1.10;1.10;;;21.50;77.10;;;;;;5034172;28;20038;-62
2022/08/10 02:44:10;;;;;;;1.23;1.23;;;21.50;77.10;;;;;;5034711;28;20024;-63
2022/08/10 02:46:41;;;;;;;1.20;1.20;;;21.50;77.40;;;;;;5034113;28;20021;-63
2022/08/10 02:49:15;;;;;;;1.13;1.13;;;21.50;77.30;;;;;;5033549;28;20389;-63
2022/08/10 02:51:49;;;;;;;1.55;1.45;;;21.50;77.40;;;;;;5033207;28;20028;-63
2022/08/10 02:54:22;;;;;;;1.30;1.30;;;21.40;77.20;;;;;;5033684;28;20068;-63
2022/08/10 02:56:57;;;;;;;1.45;1.35;;;21.40;77.30;;;;;;5034226;28;20404;-62
2022/08/10 02:59:28;;;;;;;1.27;1.17;;;21.40;77.40;;;;;;5033554;28;20532;-62
2022/08/10 03:01:58;;;;;;;0.98;0.98;;;21.40;77.60;;;;;;5034497;28;20120;-62
2022/08/10 03:04:33;;;;;;;1.27;1.20;;;21.40;77.60;;;;;;5033234;28;20041;-63
2022/08/10 03:07:02;;;;;;;1.50;1.40;;;21.40;77.60;;;;;;5034383;28;20026;-62
2022/08/10 03:09:30;;;;;;;1.75;1.65;;;21.40;77.60;;;;;;5033531;28;20030;-61
2022/08/10 03:11:57;;;;;;;1.65;1.30;;;21.40;77.70;;;;;;5034298;28;20025;-61
2022/08/10 03:14:24;;;;;;;1.17;1.17;;;21.40;77.90;;;;;;5033727;28;20079;-62
2022/08/10 03:16:52;;;;;;;1.20;1.20;;;21.40;77.90;;;;;;5033750;28;20397;-63
2022/08/10 03:19:19;;;;;;;1.38;1.38;;;21.40;78.00;;;;;;5032452;28;20022;-62
2022/08/10 03:21:47;;;;;;;1.30;1.30;;;21.30;78.00;;;;;;5033775;28;20040;-62
2022/08/10 03:24:14;;;;;;;1.70;1.48;;;21.30;78.20;;;;;;5033822;28;20021;-62
2022/08/10 03:26:40;;;;;;;1.60;1.50;;;21.30;78.30;;;;;;5034273;28;20029;-63
2022/08/10 03:29:07;;;;;;;1.83;1.73;;;21.30;78.30;;;;;;5032921;28;20048;-62
2022/08/10 03:31:34;;;;;;;1.40;1.35;;;21.30;78.50;;;;;;5031800;28;20462;-62
2022/08/10 03:34:01;;;;;;;1.90;1.60;;;21.30;78.60;;;;;;5033458;28;20148;-62
2022/08/10 03:36:27;;;;;;;2.03;1.75;;;21.30;78.60;;;;;;5043503;28;20036;-63
2022/08/10 03:38:53;;;;;;;1.77;1.67;;;21.20;78.50;;;;;;5032491;28;20057;-63
2022/08/10 03:41:29;;;;;;;1.70;1.60;;;21.30;78.70;;;;;;5032647;28;20107;-62
2022/08/10 03:43:56;;;;;;;1.65;1.50;;;21.30;78.80;;;;;;5021004;28;20022;-63
2022/08/10 03:46:25;;;;;;;1.45;1.45;;;21.20;78.80;;;;;;5033518;28;20480;-62
2022/08/10 03:48:54;;;;;;;1.92;1.83;;;21.20;78.90;;;;;;5031123;28;20032;-62
2022/08/10 03:51:21;;;;;;;1.58;1.48;;;21.30;78.90;;;;;;5033200;28;20033;-63
2022/08/10 03:53:48;;;;;;;1.77;1.67;;;21.20;79.00;;;;;;5033603;28;20387;-63
2022/08/10 03:56:14;;;;;;;1.88;1.75;;;21.20;79.10;;;;;;5032301;28;20025;-63
2022/08/10 03:58:40;;;;;;;1.95;1.85;;;21.20;79.40;;;;;;5032037;28;20087;-62
2022/08/10 04:01:06;;;;;;;2.00;1.90;;;21.20;79.20;;;;;;5033219;28;20025;-62
2022/08/10 04:03:32;;;;;;;1.92;1.83;;;21.20;79.40;;;;;;5033297;28;20469;-61
2022/08/10 04:05:58;;;;;;;2.30;2.10;;;21.20;79.50;;;;;;5032768;28;20088;-63
2022/08/10 04:08:24;;;;;;;2.88;2.03;;;21.20;79.50;;;;;;5032971;28;20481;-60
2022/08/10 04:10:49;;;;;;;1.90;1.80;;;21.20;79.50;;;;;;5032269;28;20063;-62
2022/08/10 04:13:15;;;;;;;2.10;2.00;;;21.10;79.60;;;;;;5031905;28;20030;-62
2022/08/10 04:15:41;;;;;;;1.60;1.50;;;21.20;79.70;;;;;;5032873;28;20021;-62
2022/08/10 04:18:06;;;;;;;1.80;1.70;;;21.10;79.90;;;;;;5033013;28;20025;-62
2022/08/10 04:20:41;;;;;;;2.10;1.90;;;21.10;80.00;;;;;;5031625;28;20036;-60
2022/08/10 04:23:14;;;;;;;1.75;1.65;;;21.10;80.00;;;;;;5032853;28;20445;-62
2022/08/10 04:25:40;;;;;;;1.92;1.80;;;21.10;80.20;;;;;;5032935;28;20041;-63
2022/08/10 04:28:07;;;;;;;2.00;1.90;;;21.10;80.20;;;;;;5031121;28;20049;-62
2022/08/10 04:30:35;;;;;;;1.52;1.42;;;21.10;80.40;;;;;;5030962;28;20025;-61
2022/08/10 04:33:02;;;;;;;2.00;1.88;;;21.20;80.50;;;;;;5033130;28;20083;-61
2022/08/10 04:35:30;;;;;;;1.90;1.80;;;21.10;80.50;;;;;;5035782;28;20021;-62
2022/08/10 04:37:58;;;;;;;1.75;1.65;;;21.10;80.60;;;;;;5040196;28;20389;-61
2022/08/10 04:40:24;;;;;;;2.20;2.00;;;21.20;80.90;;;;;;5031282;28;20488;-60
2022/08/10 04:42:50;;;;;;;2.20;2.00;;;21.20;81.70;;;;;;5032187;28;20440;-62
2022/08/10 04:45:17;;;;;;;2.50;2.28;;;21.20;81.10;;;;;;5032274;28;20025;-62
2022/08/10 04:47:42;;;;;;;2.50;2.30;;;21.20;81.40;;;;;;5024121;28;20033;-62
2022/08/10 04:50:08;;;;;;;2.25;2.05;;;21.20;81.40;;;;;;5035674;28;20028;-63
2022/08/10 04:52:34;;;;;;;2.55;2.20;;;21.20;81.40;;;;;;5034480;28;20021;-60
2022/08/10 04:55:00;;;;;;;2.03;1.92;;;21.20;81.60;;;;;;5029780;28;20091;-62
2022/08/10 04:57:26;;;;;;;2.22;2.08;;;21.30;81.90;;;;;;5036513;28;20121;-63
2022/08/10 04:59:52;;;;;;;2.28;2.08;;;21.30;82.00;;;;;;5035782;28;20039;-63
2022/08/10 05:02:17;;;;;;;2.53;2.25;;;21.30;82.00;;;;;;5035623;28;20124;-62
2022/08/10 05:04:43;;;;;;;1.98;1.88;;;21.30;82.00;;;;;;5036462;28;20021;-63
2022/08/10 05:07:12;;;;;;;2.20;2.00;;;21.30;82.10;;;;;;5036592;28;20075;-62
2022/08/10 05:09:39;;;;;;;2.13;2.03;;;21.30;82.20;;;;;;5034693;28;20025;-63
2022/08/10 05:12:05;;;;;;;2.47;2.28;;;21.30;82.30;;;;;;5035245;28;20025;-63
2022/08/10 05:14:31;;;;;;;2.17;1.98;;;21.30;82.30;;;;;;5035591;28;20519;-62
2022/08/10 05:16:56;;;;;;;2.75;2.10;;;21.30;82.60;;;;;;5035392;28;20029;-62
2022/08/10 05:19:22;;;;;;;2.28;2.08;;;21.30;82.70;;;;;;5034323;28;20553;-61
2022/08/10 05:21:48;;;;;;;2.47;2.28;;;21.20;82.80;;;;;;5028465;28;20021;-62
2022/08/10 05:24:13;;;;;;;2.28;2.08;;;21.20;82.90;;;;;;5035039;28;20096;-63
2022/08/10 05:26:39;;;;;;;2.83;2.40;;;21.30;83.00;;;;;;5035816;28;20017;-62
2022/08/10 05:29:05;;;;;;;2.25;2.05;;;21.30;83.10;;;;;;5034974;28;20030;-60
2022/08/10 05:31:31;;;;;;;3.15;2.35;;;21.30;83.30;;;;;;5035754;28;20061;-62
2022/08/10 05:33:56;;;;;;;2.38;2.17;;;21.30;83.30;;;;;;5026809;28;20461;-63
2022/08/10 05:36:23;;;;;;;2.50;2.30;;;21.30;83.30;;;;;;5034867;28;20040;-62
2022/08/10 05:38:49;;;;;;;2.15;2.05;;;21.40;83.30;;;;;;5026807;28;20071;-63
2022/08/10 05:41:16;;;;;;;2.42;2.22;;;21.40;83.30;;;;;;5033383;28;20519;-62
2022/08/10 05:43:42;;;;;;;2.53;2.33;;;21.50;83.30;;;;;;5033310;28;20080;-63
2022/08/10 05:46:08;;;;;;;2.40;2.20;;;21.50;83.20;;;;;;5034808;28;20034;-61
2022/08/10 05:48:35;;;;;;;3.08;2.20;;;21.50;82.90;;;;;;5030474;28;20033;-60
2022/08/10 05:51:02;;;;;;;2.83;2.47;;;21.50;83.00;;;;;;5020153;28;20025;-62
2022/08/10 05:53:27;;;;;;;2.38;2.17;;;21.60;83.00;;;;;;5025799;28;20037;-60
2022/08/10 05:55:53;;;;;;;2.80;2.50;;;21.60;83.10;;;;;;5023764;28;20061;-62
2022/08/10 05:58:19;;;;;;;2.60;2.40;;;21.60;83.00;;;;;;5027765;28;20021;-63
2022/08/10 06:00:52;;;;;;;3.40;2.70;;;21.60;83.10;;;;;;5023882;28;20103;-63
2022/08/10 06:03:32;;;;;;;2.50;2.30;;;21.70;83.00;;;;;;5027868;28;20083;-62
2022/08/10 06:06:01;;;;;;;3.33;2.80;;;21.70;83.10;;;;;;5011891;28;20052;-59
2022/08/10 06:08:30;;;;;;;3.17;2.80;;;21.70;83.00;;;;;;5023257;28;20651;-59
2022/08/10 06:10:58;;;;;;;3.00;2.70;;;21.80;83.10;;;;;;5021635;28;20657;-62
2022/08/10 06:16:12;;;;;;;2.80;2.58;;;21.80;83.00;;;;;;5015168;28;20049;-61
2022/08/10 06:18:38;;;;;;;2.92;2.63;;;21.90;83.00;;;;;;5014616;28;20026;-55
2022/08/10 06:21:05;;;;;;;2.63;2.40;;;21.90;83.10;;;;;;5013044;28;20036;-60
2022/08/10 06:23:32;;;;;;;3.65;2.65;;;22.10;83.30;;;;;;5019920;28;20079;-57
2022/08/10 06:25:58;;;;;;;3.75;2.78;;;22.10;82.90;;;;;;5015553;28;20030;-59
2022/08/10 06:28:26;;;;;;;3.13;2.83;;;22.30;82.50;;;;;;5006480;28;20131;-60
2022/08/10 06:30:53;;;;;;;3.25;2.70;;;22.40;82.20;;;;;;5008074;28;20036;-61
2022/08/10 06:33:22;;;;;;;3.45;2.85;;;22.50;81.90;;;;;;5009700;28;20041;-60
2022/08/10 06:35:51;;;;;;;2.55;2.35;;;22.60;81.40;;;;;;5021505;28;20048;-61
2022/08/10 06:38:17;;;;;;;3.17;2.83;;;22.60;81.00;;;;;;5011849;28;21269;-60
2022/08/10 06:40:45;;;;;;;3.53;3.00;;;22.60;80.80;;;;;;5005987;28;20036;-63
2022/08/10 06:43:15;;;;;;;2.85;2.63;;;22.60;80.70;;;;;;5007001;28;20050;-59
2022/08/10 06:45:53;;;;;;;3.77;3.10;;;22.70;80.70;;;;;;5009076;28;20025;-61
2022/08/10 06:48:25;;;;;;;3.35;3.03;;;22.80;80.60;;;;;;5008147;28;20325;-64
2022/08/10 06:50:55;;;;;;;2.70;2.50;;;22.80;80.50;;;;;;5004346;28;20037;-63
2022/08/10 06:53:23;;;;;;;2.80;2.50;;;22.80;80.30;;;;;;5004856;28;20029;-60
2022/08/10 06:55:53;;;;;;;3.17;2.70;;;22.90;80.40;;;;;;5008480;28;20111;-63
2022/08/10 06:58:23;;;;;;;3.00;2.70;;;22.90;80.40;;;;;;5001466;28;20518;-60
2022/08/10 07:00:51;;;;;;;2.70;2.50;;;23.00;80.40;;;;;;5000661;28;20033;-60
2022/08/10 07:03:19;;;;;;;3.67;2.90;;;23.00;80.30;;;;;;5010554;28;20157;-60
2022/08/10 07:05:47;;;;;;;3.20;2.90;;;23.00;80.10;;;;;;5004208;28;20071;-60
2022/08/10 07:08:20;;;;;;;2.88;2.58;;;23.10;80.00;;;;;;5005030;28;20061;-62
2022/08/10 07:10:47;;;;;;;3.10;2.80;;;23.10;80.00;;;;;;5004950;28;20060;-60
2022/08/10 07:13:18;;;;;;;3.90;3.10;;;23.10;79.90;;;;;;5011398;28;21930;-64
2022/08/10 07:15:47;;;;;;;3.80;3.28;;;23.20;79.80;;;;;;5007077;28;22800;-54
2022/08/10 07:18:14;;;;;;;3.10;2.80;;;23.20;79.60;;;;;;5011015;28;20135;-62
2022/08/10 07:20:41;;;;;;;3.65;3.30;;;23.20;79.50;;;;;;5004829;28;21490;-64
2022/08/10 07:23:10;;;;;;;3.55;2.85;;;23.20;79.50;;;;;;5011271;28;20030;-59
2022/08/10 07:25:38;;;;;;;3.30;3.00;;;23.20;79.70;;;;;;5010843;28;20068;-59
2022/08/10 07:28:04;;;;;;;3.40;3.00;;;23.30;79.70;;;;;;5022681;28;20460;-59
2022/08/10 07:30:34;;;;;;;3.55;3.00;;;23.40;79.80;;;;;;5009282;28;20549;-58
2022/08/10 07:33:03;;;;;;;4.33;3.57;;;23.50;79.70;;;;;;5001184;28;20021;-61
2022/08/10 07:35:32;;;;;;;2.88;2.60;;;23.50;80.10;;;;;;5007421;28;20271;-61
2022/08/10 07:38:01;;;;;;;3.90;3.10;;;23.60;79.10;;;;;;5004256;28;20022;-60
2022/08/10 07:40:29;;;;;;;3.58;3.20;;;23.60;79.00;;;;;;5008227;28;20422;-62
2022/08/10 07:43:00;;;;;;;3.22;2.92;;;23.60;78.70;;;;;;5004084;28;20748;-61
2022/08/10 07:45:30;;;;;;;2.90;2.70;;;23.60;78.50;;;;;;5005768;28;20065;-63
2022/08/10 07:48:19;;;;;;;3.42;3.13;;;23.60;78.50;;;;;;4993517;28;20062;-64
2022/08/10 07:50:45;;;;;;;2.80;2.60;;;23.70;78.40;;;;;;5000987;28;20033;-60
2022/08/10 07:53:17;;;;;;;3.47;3.13;;;23.70;78.30;;;;;;5000871;28;20385;-61
2022/08/10 07:55:45;;;;;;;3.58;3.08;;;23.80;78.10;;;;;;4997549;28;20029;-61
2022/08/10 07:58:14;;;;;;;4.75;3.80;;;23.90;77.80;;;;;;5001472;28;20026;-61
2022/08/10 08:00:42;;;;;;;3.28;2.97;;;23.90;77.50;;;;;;4999944;28;20056;-58
2022/08/10 08:03:11;;;;;;;2.90;2.70;;;23.90;77.20;;;;;;4997497;28;20385;-62
2022/08/10 08:05:38;;;;;;;2.95;2.67;;;24.00;77.00;;;;;;5000496;28;20091;-60
2022/08/10 08:08:05;;;;;;;3.85;3.00;;;24.00;77.00;;;;;;5000580;28;20091;-61
2022/08/10 08:10:33;;;;;;;2.97;2.67;;;24.00;77.00;;;;;;5003799;28;20025;-63
2022/08/10 08:13:00;;;;;;;3.45;2.90;;;24.00;77.20;;;;;;5007019;28;20164;-66
2022/08/10 08:15:26;;;;;;;3.30;2.80;;;24.10;77.20;;;;;;4995589;28;20034;-62
2022/08/10 08:17:55;;;;;;;2.80;2.40;;;24.10;76.90;;;;;;4999014;28;20813;-63
2022/08/10 08:20:23;;;;;;;3.17;2.88;;;24.20;76.70;;;;;;5001819;28;20022;-63
2022/08/10 08:22:50;;;;;;;3.00;2.70;;;24.20;76.50;;;;;;4992946;28;20084;-62
2022/08/10 08:25:17;;;;;;;2.90;2.60;;;24.30;76.30;;;;;;5024438;28;20747;-64
2022/08/10 08:27:45;;;;;;;2.65;2.42;;;24.30;76.10;;;;;;5001502;28;20095;-62
2022/08/10 08:30:13;;;;;;;2.72;2.45;;;24.30;76.00;;;;;;5006430;28;20036;-62
2022/08/10 08:32:42;;;;;;;2.67;2.47;;;24.30;75.70;;;;;;5004810;28;20040;-60
2022/08/10 08:35:11;;;;;;;2.40;2.20;;;24.30;75.20;;;;;;4995298;28;20035;-61
2022/08/10 08:37:39;;;;;;;2.50;2.30;;;24.30;75.10;;;;;;5000754;28;20034;-57
2022/08/10 08:40:13;;;;;;;2.60;2.35;;;24.30;74.90;;;;;;4990244;28;20029;-60
2022/08/10 08:43:00;;;;;;;2.45;2.25;;;24.30;74.70;;;;;;5000778;28;20488;-60
2022/08/10 08:46:06;;;;;;;3.05;2.45;;;24.30;74.50;;;;;;4996463;28;20060;-61
2022/08/10 08:48:43;;;;;;;2.20;2.00;;;24.30;74.50;;;;;;4996885;28;20576;-63
2022/08/10 08:51:15;;;;;;;2.65;2.33;;;24.30;74.30;;;;;;4987731;28;20040;-60
2022/08/10 08:54:06;;;;;;;2.30;2.10;;;24.30;74.10;;;;;;4987835;28;20178;-60
2022/08/10 08:56:40;;;;;;;2.85;2.47;;;24.20;73.80;;;;;;4987782;28;20071;-60
2022/08/10 08:59:21;;;;;;;1.95;1.83;;;24.20;73.60;;;;;;4979941;28;20029;-62
2022/08/10 09:02:05;;;;;;;2.03;1.92;;;24.10;73.30;;;;;;4987662;28;20029;-62
2022/08/10 09:05:13;;;;;;;3.50;2.00;;;24.10;73.20;;;;;;4995350;28;20025;-61
2022/08/10 09:07:39;;;;;;;1.77;1.67;;;24.00;73.30;;;;;;4988654;28;20099;-60
2022/08/10 09:10:27;;;;;;;3.03;2.25;;;24.00;73.50;;;;;;4991160;28;20018;-61
2022/08/10 09:13:03;;;;;;;2.88;2.08;;;24.10;73.40;;;;;;4995547;28;20166;-63
2022/08/10 09:15:45;;;;;;;2.33;2.13;;;24.10;73.30;;;;;;4999904;28;20033;-57
2022/08/10 09:18:30;;;;;;;2.35;2.15;;;24.10;73.00;;;;;;4996586;28;20033;-64
2022/08/10 09:21:11;;;;;;;1.85;1.75;;;24.20;72.80;;;;;;4995072;28;20041;-61
2022/08/10 09:23:50;;;;;;;2.20;1.92;;;24.20;72.40;;;;;;5005973;28;20109;-61
2022/08/10 09:26:23;;;;;;;2.28;2.08;;;24.20;72.30;;;;;;4995264;28;20045;-61
2022/08/10 09:28:53;;;;;;;4.20;2.20;;;24.30;71.70;;;;;;4993447;28;20060;-59
2022/08/10 09:31:22;;;;;;;2.63;2.43;;;24.30;71.40;;;;;;4995956;28;20036;-60
2022/08/10 09:34:10;;;;;;;2.70;2.35;;;24.30;71.50;;;;;;4993485;28;20326;-58
2022/08/10 09:37:22;;;;;;;2.10;1.90;;;24.30;71.70;;;;;;4995981;28;20033;-63
2022/08/10 09:39:57;;;;;;;1.92;1.80;;;24.30;71.30;;;;;;4997725;28;20095;-58
2022/08/10 09:43:03;;;;;;;1.92;1.83;;;24.30;71.40;;;;;;5003401;28;20057;-62
2022/08/10 09:45:49;;;;;;;1.95;1.85;;;24.40;70.90;;;;;;4996936;28;20029;-60
2022/08/10 09:48:32;;;;;;;2.63;2.42;;;24.40;71.20;;;;;;5005812;28;20037;-61
2022/08/10 09:51:28;;;;;;;2.30;2.10;;;24.50;71.80;;;;;;5000612;28;20123;-65
2022/08/10 09:54:11;;;;;;;1.98;1.88;;;24.50;70.90;;;;;;5007247;28;20037;-62
2022/08/10 09:56:55;;;;;;;1.98;1.88;;;24.50;70.90;;;;;;4997034;28;20056;-61
2022/08/10 09:59:41;;;;;;;2.20;2.00;;;24.60;70.50;;;;;;4996543;28;21054;-57
2022/08/10 10:02:13;;;;;;;1.90;1.80;;;24.60;70.30;;;;;;4997458;28;21124;-61
2022/08/10 10:04:44;;;;;;;1.95;1.85;;;24.60;70.00;;;;;;5005916;28;20025;-61
2022/08/10 10:07:18;;;;;;;1.83;1.73;;;24.60;70.30;;;;;;4998998;28;20021;-59
2022/08/10 10:09:56;;;;;;;2.40;2.20;;;24.60;70.20;;;;;;5000942;28;20321;-59
2022/08/10 10:12:41;;;;;;;1.73;1.63;;;24.60;70.20;;;;;;5002708;28;20080;-62
2022/08/10 10:15:21;;;;;;;1.90;1.80;;;24.60;70.00;;;;;;5005202;28;20491;-59
2022/08/10 10:18:11;;;;;;;1.95;1.85;;;24.60;69.40;;;;;;5008547;28;20071;-59
2022/08/10 10:21:01;;;;;;;1.42;1.40;;;24.60;69.00;;;;;;5005793;28;20095;-61
2022/08/10 10:23:49;;;;;;;1.70;1.60;;;24.60;69.00;;;;;;5003044;28;20052;-55
2022/08/10 10:26:32;;;;;;;2.72;2.17;;;24.60;68.60;;;;;;5004483;28;20042;-61
2022/08/10 10:29:23;;;;;;;2.28;2.08;;;24.60;68.60;;;;;;5029235;28;20068;-60
2022/08/10 10:32:01;;;;;;;1.60;1.50;;;24.50;68.60;;;;;;4996976;28;20030;-56
2022/08/10 10:34:48;;;;;;;1.85;1.75;;;24.50;68.70;;;;;;5002969;28;20067;-59
2022/08/10 10:37:16;;;;;;;1.80;1.65;;;24.50;68.60;;;;;;5001191;28;20029;-59
2022/08/10 10:39:46;;;;;;;1.75;1.65;;;24.50;68.60;;;;;;4999218;28;20030;-59
2022/08/10 10:42:36;;;;;;;2.13;2.00;;;24.50;68.60;;;;;;5003538;28;20077;-61
2022/08/10 10:45:05;;;;;;;1.75;1.65;;;24.50;68.50;;;;;;5002057;28;20156;-57
2022/08/10 10:48:02;;;;;;;2.08;1.88;;;24.50;68.90;;;;;;5003516;28;20034;-57
2022/08/10 10:50:54;;;;;;;2.10;1.90;;;24.60;68.90;;;;;;4998092;28;20111;-61
2022/08/10 10:53:38;;;;;;;2.03;1.92;;;24.60;68.90;;;;;;5003773;28;22992;-59
2022/08/10 10:56:19;;;;;;;2.30;2.10;;;24.60;68.80;;;;;;5007756;28;20131;-62
2022/08/10 10:59:14;;;;;;;2.45;2.15;;;24.60;68.80;;;;;;4989972;28;20068;-59
2022/08/10 11:01:46;;;;;;;1.90;1.80;;;24.60;69.00;;;;;;4998648;28;20026;-63
2022/08/10 11:04:22;;;;;;;2.17;2.08;;;24.60;69.00;;;;;;4999704;28;20504;-62
2022/08/10 11:07:09;;;;;;;2.50;2.30;;;24.70;69.00;;;;;;5006900;28;20059;-61
2022/08/10 11:09:55;;;;;;;3.72;2.60;;;24.70;68.70;;;;;;5001377;28;20840;-63
2022/08/10 11:12:30;;;;;;;1.98;1.88;;;24.70;68.60;;;;;;5003741;28;20033;-64
2022/08/10 11:15:14;;;;;;;1.98;1.88;;;24.70;68.60;;;;;;5004244;28;21377;-63
2022/08/10 11:18:01;;;;;;;2.53;2.33;;;24.70;68.70;;;;;;5009503;28;20500;-63
2022/08/10 11:20:37;;;;;;;2.05;1.95;;;24.70;68.60;;;;;;5005494;28;20040;-65
2022/08/10 11:23:48;;;;;;;2.03;1.92;;;24.70;68.60;;;;;;5010228;28;20042;-60
2022/08/10 11:26:30;;;;;;;2.30;2.10;;;24.80;68.60;;;;;;5004793;28;20509;-65
2022/08/10 11:29:19;;;;;;;2.60;2.40;;;24.80;68.70;;;;;;5004884;28;20038;-60
2022/08/10 11:31:57;;;;;;;3.58;2.70;;;24.80;68.60;;;;;;5004671;28;20079;-59
2022/08/10 11:34:49;;;;;;;2.28;2.10;;;24.80;68.70;;;;;;5009705;28;20025;-61
2022/08/10 11:37:25;;;;;;;2.55;2.35;;;24.80;68.60;;;;;;5002109;28;20091;-62
2022/08/10 11:40:11;;;;;;;2.38;2.17;;;24.80;68.80;;;;;;5003846;28;20025;-62
2022/08/10 11:42:53;;;;;;;2.10;2.00;;;24.80;68.70;;;;;;4996518;28;20061;-59
2022/08/10 11:45:30;;;;;;;2.38;2.15;;;24.80;68.80;;;;;;4986745;28;20037;-62
2022/08/10 11:48:00;;;;;;;2.28;2.08;;;24.80;68.90;;;;;;4990368;28;20042;-61
2022/08/10 11:50:57;;;;;;;2.25;2.05;;;24.80;68.90;;;;;;4998788;28;20415;-60
2022/08/10 11:53:44;;;;;;;2.50;2.30;;;24.80;68.80;;;;;;4999039;28;20038;-59
2022/08/10 11:56:14;;;;;;;2.30;2.10;;;24.80;68.80;;;;;;4997137;28;20029;-60
2022/08/10 12:01:31;;;;;;;2.60;2.40;;;24.80;68.80;;;;;;4988877;28;20056;-61
2022/08/10 12:04:06;;;;;;;2.17;1.98;;;24.80;68.70;;;;;;4996979;28;20037;-59
2022/08/10 12:06:32;;;;;;;2.20;2.00;;;24.80;68.70;;;;;;5002392;28;20033;-60
2022/08/10 12:08:59;;;;;;;2.00;1.80;;;24.90;68.90;;;;;;4998552;28;20156;-60
2022/08/10 12:11:28;;;;;;;2.53;2.33;;;24.90;68.80;;;;;;5001233;28;20033;-61
2022/08/10 12:14:09;;;;;;;2.00;1.90;;;24.90;68.60;;;;;;5002805;28;20940;-60
2022/08/10 12:16:41;;;;;;;2.70;2.50;;;24.90;68.50;;;;;;4997896;28;20029;-60
2022/08/10 12:19:15;;;;;;;2.38;2.17;;;24.90;68.50;;;;;;5007538;28;20034;-65
2022/08/10 12:21:52;;;;;;;2.08;1.95;;;24.90;68.50;;;;;;5003303;28;20358;-60
2022/08/10 12:24:24;;;;;;;2.38;2.17;;;24.80;68.40;;;;;;5003216;28;20068;-59
2022/08/10 12:27:06;;;;;;;2.33;2.15;;;24.80;68.50;;;;;;4991636;28;20029;-60
2022/08/10 12:29:54;;;;;;;2.42;2.22;;;24.80;68.90;;;;;;4995826;28;20029;-62
2022/08/10 12:33:03;;;;;;;2.47;2.28;;;24.80;68.90;;;;;;4995727;28;20033;-64
2022/08/10 12:35:35;;;;;;;2.35;2.15;;;24.80;69.10;;;;;;4957949;28;20065;-60
2022/08/10 12:38:12;;;;;;;2.60;2.40;;;24.90;68.90;;;;;;4989522;28;20044;-60
2022/08/10 12:40:56;;;;;;;2.40;2.20;;;24.90;68.80;;;;;;5004306;28;20105;-62
2022/08/10 12:43:31;;;;;;;2.10;2.00;;;24.80;68.80;;;;;;4996194;28;20049;-59
2022/08/10 12:46:12;;;;;;;2.50;2.30;;;24.80;68.70;;;;;;4999322;28;20034;-61
2022/08/10 12:48:46;;;;;;;;;;;24.80;68.60;;;;;;5000325;28;20040;-59
2022/08/10 12:51:35;;;;;;;2.28;2.08;;;24.80;68.80;;;;;;5000721;28;19921;-62
2022/08/10 12:54:17;;;;;;;2.38;2.17;;;24.80;69.10;;;;;;5001258;28;20048;-61
2022/08/10 12:57:04;;;;;;;2.40;2.20;;;24.80;69.10;;;;;;4991612;28;20025;-61
2022/08/10 12:59:31;;;;;;;2.67;2.33;;;24.80;69.30;;;;;;5001475;28;20760;-59
2022/08/10 13:01:58;;;;;;;2.90;2.67;;;24.80;69.40;;;;;;4994788;28;20044;-59
2022/08/10 13:04:36;;;;;;;2.20;2.10;;;24.80;69.50;;;;;;4994945;28;20075;-61
2022/08/10 13:07:05;;;;;;;2.58;2.38;;;24.80;69.90;;;;;;4998046;28;20029;-60
2022/08/10 13:09:32;;;;;;;2.58;2.38;;;24.80;69.70;;;;;;5009366;28;20029;-62
2022/08/10 13:12:07;;;;;;;2.83;2.40;;;24.70;69.70;;;;;;5002991;28;21052;-64
2022/08/10 13:14:56;;;;;;;2.42;2.22;;;24.80;69.70;;;;;;4998689;28;20025;-64
2022/08/10 13:17:30;;;;;;;2.55;2.35;;;24.80;69.70;;;;;;5007106;28;21650;-62
2022/08/10 13:19:58;;;;;;;3.03;2.72;;;24.80;69.90;;;;;;5005012;28;20424;-62
2022/08/10 13:22:28;;;;;;;2.58;2.38;;;24.80;70.40;;;;;;5002269;28;20543;-63